Time;durP1;ratioP1;P1;durP2;ratioP2;P2;SDS_P1;SDS_P2;PMS_P1;PMS_P2;Temp;Humidity;BMP_temperature;BMP_pressure;BME280_temperature;BME280_humidity;BME280_pressure;Samples;Min_cycle;Max_cycle;Signal;HPM_P1;HPM_P2
2023/09/18 00:01:08;;;;;;;6.13;3.28;;;;;;;;;;4993618;28;20757;-78
2023/09/18 00:03:35;;;;;;;8.27;3.40;;;;;;;;;;4993439;28;20217;-80
2023/09/18 00:06:04;;;;;;;8.77;3.60;;;;;;;;;;4993133;28;20198;-81
2023/09/18 00:08:31;;;;;;;4.97;3.35;;;;;;;;;;4993813;28;20305;-80
2023/09/18 00:11:00;;;;;;;8.82;3.40;;;;;;;;;;4993434;28;20198;-80
2023/09/18 00:13:27;;;;;;;5.93;2.95;;;;;;;;;;4993198;28;20206;-80
2023/09/18 00:15:59;;;;;;;7.68;3.55;;;;;;;;;;4993589;28;20240;-80
2023/09/18 00:18:27;;;;;;;9.07;3.65;;;;;;;;;;4992740;28;20213;-80
2023/09/18 00:20:54;;;;;;;7.25;3.38;;;;;;;;;;4993670;28;20217;-80
2023/09/18 00:23:22;;;;;;;10.05;3.83;;;;;;;;;;4993535;28;20221;-80
2023/09/18 00:25:50;;;;;;;5.90;3.55;;;;;;;;;;4994089;28;20230;-80
2023/09/18 00:28:17;;;;;;;6.53;3.72;;;;;;;;;;4992891;28;20682;-80
2023/09/18 00:30:48;;;;;;;8.30;3.80;;;;;;;;;;4993337;28;20570;-81
2023/09/18 00:33:16;;;;;;;9.80;3.70;;;;;;;;;;4992926;28;20268;-80
2023/09/18 00:35:46;;;;;;;10.35;4.28;;;;;;;;;;4992909;28;20240;-81
2023/09/18 00:38:13;;;;;;;10.40;4.07;;;;;;;;;;4992953;28;20296;-81
2023/09/18 00:40:42;;;;;;;6.78;4.20;;;;;;;;;;4992996;28;20627;-79
2023/09/18 00:43:10;;;;;;;10.65;4.05;;;;;;;;;;4993075;28;20636;-80
2023/09/18 00:45:39;;;;;;;8.20;4.18;;;;;;;;;;4992984;28;20760;-80
2023/09/18 00:48:07;;;;;;;10.48;4.65;;;;;;;;;;4992378;28;20284;-80
2023/09/18 00:50:34;;;;;;;10.23;4.85;;;;;;;;;;4992958;28;20291;-80
2023/09/18 00:53:02;;;;;;;8.43;4.60;;;;;;;;;;4992462;28;20237;-78
2023/09/18 00:55:30;;;;;;;8.75;4.70;;;;;;;;;;4993069;28;20226;-80
2023/09/18 00:57:59;;;;;;;8.77;5.22;;;;;;;;;;4993174;28;20297;-80
2023/09/18 01:00:33;;;;;;;15.57;4.88;;;;;;;;;;4999424;28;20236;-80
2023/09/18 01:03:01;;;;;;;13.43;5.20;;;;;;;;;;5073285;23;20265;-79
2023/09/18 01:05:28;;;;;;;10.70;5.60;;;;;;;;;;4992246;28;20289;-79
2023/09/18 01:07:56;;;;;;;11.52;5.50;;;;;;;;;;4992638;28;20198;-80
2023/09/18 01:10:26;;;;;;;13.10;5.63;;;;;;;;;;4991325;28;20320;-79
2023/09/18 01:12:57;;;;;;;9.55;5.22;;;;;;;;;;4982340;28;20290;-79
2023/09/18 01:15:41;;;;;;;10.82;5.45;;;;;;;;;;4987045;28;20226;-79
2023/09/18 01:18:08;;;;;;;9.85;5.70;;;;;;;;;;4991139;28;20351;-79
2023/09/18 01:20:35;;;;;;;9.73;5.50;;;;;;;;;;4978346;28;20241;-79
2023/09/18 01:23:04;;;;;;;10.48;5.75;;;;;;;;;;4990358;28;20305;-79
2023/09/18 01:25:33;;;;;;;13.32;5.97;;;;;;;;;;4992362;28;20198;-79
2023/09/18 01:28:00;;;;;;;11.00;5.90;;;;;;;;;;4992103;28;20289;-79
2023/09/18 01:30:27;;;;;;;10.68;5.72;;;;;;;;;;4991896;28;20333;-79
2023/09/18 01:32:55;;;;;;;14.73;6.57;;;;;;;;;;4991959;28;20289;-79
2023/09/18 01:35:28;;;;;;;14.30;6.43;;;;;;;;;;4991535;28;20201;-79
2023/09/18 01:37:56;;;;;;;14.02;7.25;;;;;;;;;;4991830;28;20252;-80
2023/09/18 01:40:26;;;;;;;14.00;7.22;;;;;;;;;;4992191;28;20198;-80
2023/09/18 01:42:53;;;;;;;12.30;6.00;;;;;;;;;;4991751;28;20296;-79
2023/09/18 01:45:20;;;;;;;10.05;6.80;;;;;;;;;;4991577;28;20281;-79
2023/09/18 01:47:48;;;;;;;11.80;6.57;;;;;;;;;;4992201;28;20233;-80
2023/09/18 01:50:15;;;;;;;14.90;6.57;;;;;;;;;;4991883;28;20309;-79
2023/09/18 01:52:42;;;;;;;15.43;7.32;;;;;;;;;;4991550;28;20325;-79
2023/09/18 01:55:10;;;;;;;12.40;6.60;;;;;;;;;;4991949;28;20202;-80
2023/09/18 01:57:38;;;;;;;12.88;6.57;;;;;;;;;;4992003;28;20201;-79
2023/09/18 02:00:09;;;;;;;11.18;7.43;;;;;;;;;;4991508;28;20280;-80
2023/09/18 02:02:37;;;;;;;14.23;7.30;;;;;;;;;;4991619;28;20332;-79
2023/09/18 02:05:04;;;;;;;15.07;7.22;;;;;;;;;;4991693;28;20202;-80
2023/09/18 02:07:31;;;;;;;13.38;7.30;;;;;;;;;;4991526;28;20233;-80
2023/09/18 02:09:58;;;;;;;14.90;6.93;;;;;;;;;;4991806;28;20237;-79
2023/09/18 02:12:26;;;;;;;14.85;7.13;;;;;;;;;;4991740;28;20297;-80
2023/09/18 02:14:57;;;;;;;13.82;7.72;;;;;;;;;;4991348;28;20301;-80
2023/09/18 02:17:24;;;;;;;16.30;8.10;;;;;;;;;;4991143;28;20687;-80
2023/09/18 02:19:51;;;;;;;14.38;8.60;;;;;;;;;;4991640;28;20248;-79
2023/09/18 02:22:18;;;;;;;16.17;8.55;;;;;;;;;;4991566;28;20197;-80
2023/09/18 02:24:45;;;;;;;12.50;8.68;;;;;;;;;;4991092;28;20236;-80
2023/09/18 02:27:13;;;;;;;13.02;7.78;;;;;;;;;;4991264;28;20229;-80
2023/09/18 02:29:40;;;;;;;16.38;9.13;;;;;;;;;;4990868;28;20252;-79
2023/09/18 02:32:09;;;;;;;16.05;9.80;;;;;;;;;;4991335;28;20236;-79
2023/09/18 02:34:37;;;;;;;15.88;9.85;;;;;;;;;;4991381;28;20202;-79
2023/09/18 02:37:04;;;;;;;14.25;9.40;;;;;;;;;;4991727;28;20256;-80
2023/09/18 02:39:31;;;;;;;10.98;8.50;;;;;;;;;;4991182;28;20740;-79
2023/09/18 02:41:58;;;;;;;13.30;8.98;;;;;;;;;;4991244;28;20296;-80
2023/09/18 02:44:26;;;;;;;13.27;9.77;;;;;;;;;;4991358;28;20208;-80
2023/09/18 02:46:53;;;;;;;12.45;9.48;;;;;;;;;;4990909;28;20198;-80
2023/09/18 02:49:21;;;;;;;13.52;8.68;;;;;;;;;;4994173;28;20328;-80
2023/09/18 02:51:49;;;;;;;13.38;9.43;;;;;;;;;;4995172;28;20202;-80
2023/09/18 02:54:17;;;;;;;16.83;10.20;;;;;;;;;;4996403;28;20210;-79
2023/09/18 02:56:44;;;;;;;13.40;9.98;;;;;;;;;;5002457;28;20202;-78
2023/09/18 02:59:11;;;;;;;14.23;10.30;;;;;;;;;;5003691;28;20190;-80
2023/09/18 03:01:39;;;;;;;18.13;10.35;;;;;;;;;;4998144;28;20237;-79
2023/09/18 03:04:08;;;;;;;13.50;9.98;;;;;;;;;;5000401;28;20328;-79
2023/09/18 03:06:41;;;;;;;14.85;9.93;;;;;;;;;;5001165;28;20644;-79
2023/09/18 03:09:08;;;;;;;13.85;10.05;;;;;;;;;;5000402;28;20248;-80
2023/09/18 03:11:35;;;;;;;14.23;11.07;;;;;;;;;;5002152;28;20225;-80
2023/09/18 03:14:03;;;;;;;13.45;9.93;;;;;;;;;;5001292;28;20198;-78
2023/09/18 03:16:33;;;;;;;18.00;10.50;;;;;;;;;;4984397;28;20208;-80
2023/09/18 03:19:00;;;;;;;16.85;10.80;;;;;;;;;;5000528;28;20205;-79
2023/09/18 03:21:29;;;;;;;14.70;10.23;;;;;;;;;;5002367;28;20209;-79
2023/09/18 03:23:57;;;;;;;18.20;10.57;;;;;;;;;;4998682;28;20198;-80
2023/09/18 03:26:25;;;;;;;16.70;11.23;;;;;;;;;;4999029;28;20577;-79
2023/09/18 03:28:52;;;;;;;16.98;11.52;;;;;;;;;;5001790;28;20225;-80
2023/09/18 03:31:20;;;;;;;16.23;11.18;;;;;;;;;;4994995;28;20312;-79
2023/09/18 03:33:47;;;;;;;13.55;10.32;;;;;;;;;;5001561;28;20256;-80
2023/09/18 03:36:14;;;;;;;15.90;10.48;;;;;;;;;;4994272;28;20198;-80
2023/09/18 03:38:42;;;;;;;18.67;10.32;;;;;;;;;;4993935;28;20574;-79
2023/09/18 03:41:10;;;;;;;14.77;10.50;;;;;;;;;;4993583;28;20232;-80
2023/09/18 03:43:37;;;;;;;17.63;11.73;;;;;;;;;;4994305;28;20237;-79
2023/09/18 03:46:05;;;;;;;13.75;11.02;;;;;;;;;;4993898;28;20288;-80
2023/09/18 03:48:37;;;;;;;20.70;11.32;;;;;;;;;;4994292;28;20304;-80
2023/09/18 03:51:04;;;;;;;16.80;10.95;;;;;;;;;;4993886;28;20237;-80
2023/09/18 03:53:31;;;;;;;15.23;10.38;;;;;;;;;;4993741;28;20288;-79
2023/09/18 03:55:58;;;;;;;17.73;10.77;;;;;;;;;;4993552;28;20225;-79
2023/09/18 03:58:27;;;;;;;18.83;11.00;;;;;;;;;;4993178;28;20202;-80
2023/09/18 04:00:54;;;;;;;16.13;10.98;;;;;;;;;;4993854;28;20265;-80
2023/09/18 04:03:21;;;;;;;15.30;11.45;;;;;;;;;;4993859;28;20241;-79
2023/09/18 04:05:48;;;;;;;14.43;11.20;;;;;;;;;;4993729;28;20241;-80
2023/09/18 04:08:16;;;;;;;16.55;11.50;;;;;;;;;;4994119;28;20297;-79
2023/09/18 04:10:43;;;;;;;18.13;11.27;;;;;;;;;;4993026;28;20276;-80
2023/09/18 04:13:11;;;;;;;17.80;10.93;;;;;;;;;;4993556;28;20256;-80
2023/09/18 04:15:39;;;;;;;15.40;11.55;;;;;;;;;;4993694;28;20205;-80
2023/09/18 04:18:06;;;;;;;19.20;11.55;;;;;;;;;;4993399;28;20293;-80
2023/09/18 04:20:35;;;;;;;15.40;11.75;;;;;;;;;;4993716;28;20288;-79
2023/09/18 04:23:22;;;;;;;17.55;11.48;;;;;;;;;;4993316;28;20201;-79
2023/09/18 04:25:49;;;;;;;16.05;12.10;;;;;;;;;;4993274;28;20289;-80
2023/09/18 04:28:18;;;;;;;17.23;11.98;;;;;;;;;;4993207;28;20229;-80
2023/09/18 04:30:46;;;;;;;15.48;11.55;;;;;;;;;;4993322;28;20240;-79
2023/09/18 04:33:14;;;;;;;17.25;12.27;;;;;;;;;;4993186;28;20293;-79
2023/09/18 04:35:42;;;;;;;16.13;11.45;;;;;;;;;;4993006;28;20293;-79
2023/09/18 04:38:10;;;;;;;16.08;10.57;;;;;;;;;;4993253;28;20201;-80
2023/09/18 04:40:37;;;;;;;14.00;10.77;;;;;;;;;;4992839;28;20212;-79
2023/09/18 04:43:05;;;;;;;15.05;10.98;;;;;;;;;;4993137;28;20202;-80
2023/09/18 04:45:32;;;;;;;15.88;11.05;;;;;;;;;;4992834;28;20197;-79
2023/09/18 04:48:01;;;;;;;13.13;10.65;;;;;;;;;;4993356;28;20201;-80
2023/09/18 04:50:28;;;;;;;17.27;11.20;;;;;;;;;;4992893;28;20304;-80
2023/09/18 04:52:56;;;;;;;16.25;11.07;;;;;;;;;;4992755;28;20226;-79
2023/09/18 04:55:23;;;;;;;14.18;10.45;;;;;;;;;;4992574;28;20194;-79
2023/09/18 04:57:51;;;;;;;15.77;10.63;;;;;;;;;;4992769;28;20252;-80
2023/09/18 05:00:23;;;;;;;14.40;10.20;;;;;;;;;;4992819;28;20285;-80
2023/09/18 05:02:50;;;;;;;13.57;10.55;;;;;;;;;;4992720;28;20238;-80
2023/09/18 05:05:19;;;;;;;17.63;10.68;;;;;;;;;;4992410;28;20253;-83
2023/09/18 05:07:46;;;;;;;12.48;11.13;;;;;;;;;;4973795;28;20634;-82
2023/09/18 05:10:13;;;;;;;12.77;10.15;;;;;;;;;;4971965;28;20277;-81
2023/09/18 05:12:41;;;;;;;13.68;10.07;;;;;;;;;;4973385;28;20237;-81
2023/09/18 05:15:09;;;;;;;13.55;10.75;;;;;;;;;;4972569;28;20724;-82
2023/09/18 05:17:43;;;;;;;11.88;9.98;;;;;;;;;;4978111;28;20296;-80
2023/09/18 05:20:15;;;;;;;12.98;10.55;;;;;;;;;;4992138;28;20260;-82
2023/09/18 05:22:54;;;;;;;11.82;10.23;;;;;;;;;;4993074;28;20256;-82
2023/09/18 05:25:22;;;;;;;12.13;10.00;;;;;;;;;;4992547;28;20240;-81
2023/09/18 05:27:55;;;;;;;13.25;10.50;;;;;;;;;;4992109;28;20225;-81
2023/09/18 05:30:23;;;;;;;11.02;9.77;;;;;;;;;;4991791;28;20230;-81
2023/09/18 05:32:50;;;;;;;11.43;10.25;;;;;;;;;;4993305;28;20240;-82
2023/09/18 05:35:19;;;;;;;13.77;10.43;;;;;;;;;;4992629;28;20261;-82
2023/09/18 05:37:46;;;;;;;13.23;9.23;;;;;;;;;;4992726;28;20704;-83
2023/09/18 05:40:15;;;;;;;12.48;9.82;;;;;;;;;;4989823;28;20206;-84
2023/09/18 05:42:43;;;;;;;14.40;10.13;;;;;;;;;;4991860;28;20225;-82
2023/09/18 05:45:11;;;;;;;14.13;10.02;;;;;;;;;;4992506;28;20208;-81
2023/09/18 05:47:39;;;;;;;13.77;10.45;;;;;;;;;;4990750;28;20209;-83
2023/09/18 05:50:07;;;;;;;15.35;10.43;;;;;;;;;;4992367;28;20676;-83
2023/09/18 05:52:34;;;;;;;14.00;10.30;;;;;;;;;;4992748;28;20193;-84
2023/09/18 05:55:01;;;;;;;12.10;10.05;;;;;;;;;;4991919;28;20194;-84
2023/09/18 05:57:30;;;;;;;10.90;9.45;;;;;;;;;;4992036;28;20289;-84
2023/09/18 06:00:00;;;;;;;11.05;9.43;;;;;;;;;;4991929;28;20284;-84
2023/09/18 06:02:27;;;;;;;12.60;9.60;;;;;;;;;;4991897;28;20389;-83
2023/09/18 06:04:57;;;;;;;11.40;8.68;;;;;;;;;;4991850;28;20284;-84
2023/09/18 06:07:25;;;;;;;11.73;9.15;;;;;;;;;;4991478;28;20198;-84
2023/09/18 06:09:52;;;;;;;10.75;9.45;;;;;;;;;;4992452;28;20292;-85
2023/09/18 06:12:19;;;;;;;12.05;9.32;;;;;;;;;;4990102;28;20320;-84
2023/09/18 06:14:48;;;;;;;11.68;9.68;;;;;;;;;;4644385;28;9999692;-83
2023/09/18 06:17:15;;;;;;;13.07;9.07;;;;;;;;;;4989305;28;20273;-84
2023/09/18 06:19:43;;;;;;;11.40;9.27;;;;;;;;;;4988861;28;20213;-84
2023/09/18 06:22:13;;;;;;;12.45;9.10;;;;;;;;;;4989481;28;20701;-84
2023/09/18 06:24:40;;;;;;;13.77;9.23;;;;;;;;;;4993010;28;20201;-84
2023/09/18 06:27:07;;;;;;;12.48;8.88;;;;;;;;;;4992256;28;20376;-83
2023/09/18 06:29:37;;;;;;;11.23;9.23;;;;;;;;;;4995692;28;20236;-83
2023/09/18 06:32:07;;;;;;;12.50;9.23;;;;;;;;;;4995582;28;20234;-82
2023/09/18 06:34:34;;;;;;;12.80;8.90;;;;;;;;;;4994316;28;20198;-83
2023/09/18 06:37:03;;;;;;;12.07;9.40;;;;;;;;;;4999162;28;20228;-82
2023/09/18 06:39:30;;;;;;;12.38;9.80;;;;;;;;;;5008253;28;20579;-83
2023/09/18 06:41:57;;;;;;;10.15;8.98;;;;;;;;;;5015325;28;20221;-82
2023/09/18 06:44:24;;;;;;;12.18;9.13;;;;;;;;;;4999741;28;20289;-83
2023/09/18 06:46:53;;;;;;;12.35;8.70;;;;;;;;;;5003890;28;20293;-82
2023/09/18 06:49:21;;;;;;;11.20;9.65;;;;;;;;;;5000145;28;20195;-82
2023/09/18 06:51:49;;;;;;;13.23;10.00;;;;;;;;;;4975641;28;20337;-82
2023/09/18 06:54:16;;;;;;;11.95;10.70;;;;;;;;;;4975652;28;20674;-83
2023/09/18 06:56:44;;;;;;;12.65;10.27;;;;;;;;;;4975892;28;20202;-83
2023/09/18 06:59:12;;;;;;;11.15;9.85;;;;;;;;;;4975770;28;20257;-83
2023/09/18 07:01:42;;;;;;;12.05;9.75;;;;;;;;;;4976242;28;20206;-82
2023/09/18 07:04:09;;;;;;;11.10;9.70;;;;;;;;;;4975269;28;20721;-83
2023/09/18 07:06:38;;;;;;;12.80;10.02;;;;;;;;;;4975555;28;20769;-83
2023/09/18 07:09:06;;;;;;;15.20;10.65;;;;;;;;;;4976089;28;20221;-82
2023/09/18 07:11:34;;;;;;;12.68;10.00;;;;;;;;;;4975198;28;20225;-83
2023/09/18 07:14:02;;;;;;;10.40;9.15;;;;;;;;;;4975659;28;20252;-82
2023/09/18 07:16:29;;;;;;;12.85;8.30;;;;;;;;;;4976013;28;20199;-83
2023/09/18 07:18:56;;;;;;;9.55;7.78;;;;;;;;;;4991042;28;20236;-82
2023/09/18 07:21:24;;;;;;;10.25;7.47;;;;;;;;;;4994715;28;20233;-83
2023/09/18 07:23:53;;;;;;;8.23;6.95;;;;;;;;;;4995036;28;20296;-83
2023/09/18 07:26:20;;;;;;;10.25;7.30;;;;;;;;;;4994668;28;20194;-83
2023/09/18 07:28:48;;;;;;;7.38;6.68;;;;;;;;;;4994793;28;20229;-83
2023/09/18 07:31:15;;;;;;;7.85;7.05;;;;;;;;;;4995076;28;20257;-84
2023/09/18 07:33:42;;;;;;;7.53;6.38;;;;;;;;;;4993180;28;20194;-83
2023/09/18 07:36:10;;;;;;;6.57;5.82;;;;;;;;;;4977079;28;20206;-83
2023/09/18 07:38:38;;;;;;;8.57;5.85;;;;;;;;;;4994673;28;20209;-83
2023/09/18 07:41:06;;;;;;;7.20;6.15;;;;;;;;;;4994234;28;20209;-83
2023/09/18 07:43:34;;;;;;;6.95;6.10;;;;;;;;;;4994282;28;20288;-82
2023/09/18 07:46:02;;;;;;;7.97;5.80;;;;;;;;;;4994640;28;20229;-83
2023/09/18 07:48:29;;;;;;;6.10;5.50;;;;;;;;;;4993710;28;20269;-83
2023/09/18 07:50:56;;;;;;;8.20;5.20;;;;;;;;;;4994264;28;20229;-83
2023/09/18 07:53:23;;;;;;;5.00;4.47;;;;;;;;;;4994171;28;20390;-83
2023/09/18 07:55:57;;;;;;;6.45;4.53;;;;;;;;;;4994710;28;20197;-83
2023/09/18 07:58:27;;;;;;;6.97;4.38;;;;;;;;;;4994589;28;20296;-84
2023/09/18 08:00:54;;;;;;;4.85;4.18;;;;;;;;;;4994167;28;20329;-83
2023/09/18 08:03:22;;;;;;;5.78;4.18;;;;;;;;;;4993684;28;20324;-83
2023/09/18 08:05:52;;;;;;;4.55;3.80;;;;;;;;;;4994172;28;20587;-84
2023/09/18 08:08:20;;;;;;;7.25;3.90;;;;;;;;;;4994030;28;20779;-83
2023/09/18 08:10:47;;;;;;;5.13;3.58;;;;;;;;;;4994436;28;20221;-84
2023/09/18 08:13:14;;;;;;;5.72;3.47;;;;;;;;;;4994266;28;20276;-84
2023/09/18 08:15:43;;;;;;;3.42;2.78;;;;;;;;;;4994127;28;20285;-84
2023/09/18 08:18:11;;;;;;;4.63;3.25;;;;;;;;;;4993539;28;20202;-83
2023/09/18 08:20:42;;;;;;;4.10;3.08;;;;;;;;;;4993934;28;20205;-84
2023/09/18 08:23:09;;;;;;;4.63;2.83;;;;;;;;;;4993764;28;20568;-83
2023/09/18 08:25:36;;;;;;;7.13;3.20;;;;;;;;;;4994258;28;20233;-84
2023/09/18 08:28:04;;;;;;;4.22;2.80;;;;;;;;;;4995335;28;20288;-84
2023/09/18 08:30:31;;;;;;;3.92;2.80;;;;;;;;;;4995128;28;20735;-83
2023/09/18 08:33:00;;;;;;;5.72;2.60;;;;;;;;;;4994349;28;20261;-84
2023/09/18 08:35:29;;;;;;;4.88;3.17;;;;;;;;;;4993522;28;20768;-84
2023/09/18 08:37:57;;;;;;;3.08;2.63;;;;;;;;;;4994016;28;20252;-84
2023/09/18 08:40:25;;;;;;;3.55;2.45;;;;;;;;;;4993661;28;20288;-84
2023/09/18 08:42:55;;;;;;;3.28;2.35;;;;;;;;;;4993416;28;20300;-84
2023/09/18 08:45:24;;;;;;;5.07;2.55;;;;;;;;;;4993184;28;20202;-84
2023/09/18 08:47:53;;;;;;;5.30;2.10;;;;;;;;;;4993203;28;20230;-83
2023/09/18 08:50:22;;;;;;;6.07;2.55;;;;;;;;;;4992757;28;20202;-84
2023/09/18 08:52:50;;;;;;;3.15;2.45;;;;;;;;;;4993243;28;20716;-84
2023/09/18 08:55:18;;;;;;;2.80;2.15;;;;;;;;;;4993147;28;20750;-84
2023/09/18 08:57:45;;;;;;;4.18;2.33;;;;;;;;;;4993136;28;20277;-83
2023/09/18 09:00:16;;;;;;;4.60;2.42;;;;;;;;;;4992824;28;20239;-83
2023/09/18 09:02:44;;;;;;;4.30;2.33;;;;;;;;;;4993132;28;20248;-84
2023/09/18 09:05:11;;;;;;;2.63;2.05;;;;;;;;;;4992908;28;20289;-83
2023/09/18 09:07:40;;;;;;;2.80;2.00;;;;;;;;;;4992870;28;20748;-83
2023/09/18 09:10:07;;;;;;;4.10;2.15;;;;;;;;;;4993268;28;20293;-84
2023/09/18 09:12:51;;;;;;;4.70;2.00;;;;;;;;;;4992710;28;20261;-82
2023/09/18 09:15:18;;;;;;;5.70;2.10;;;;;;;;;;4992674;28;20209;-83
2023/09/18 09:17:46;;;;;;;3.47;1.75;;;;;;;;;;4992945;28;20216;-84
2023/09/18 09:20:14;;;;;;;3.92;2.00;;;;;;;;;;4992824;28;20198;-84
2023/09/18 09:22:43;;;;;;;3.75;1.90;;;;;;;;;;4992986;28;20280;-85
2023/09/18 09:25:27;;;;;;;4.53;1.90;;;;;;;;;;4992809;28;20207;-86
2023/09/18 09:27:54;;;;;;;4.20;1.70;;;;;;;;;;4975280;28;20672;-85
2023/09/18 09:30:23;;;;;;;3.58;2.00;;;;;;;;;;4992141;28;20711;-85
2023/09/18 09:32:51;;;;;;;3.25;1.60;;;;;;;;;;4992645;28;20669;-84
2023/09/18 09:35:22;;;;;;;3.78;2.17;;;;;;;;;;4992486;28;20193;-85
2023/09/18 09:37:51;;;;;;;3.38;1.83;;;;;;;;;;4992533;28;20202;-85
2023/09/18 09:40:21;;;;;;;3.22;1.80;;;;;;;;;;4992710;28;20202;-87
2023/09/18 09:42:48;;;;;;;3.58;1.80;;;;;;;;;;4993146;28;20936;-85
2023/09/18 09:45:17;;;;;;;2.80;1.80;;;;;;;;;;4993218;28;20292;-86
2023/09/18 09:47:44;;;;;;;3.10;1.80;;;;;;;;;;4992996;28;20595;-86
2023/09/18 09:50:13;;;;;;;3.13;1.85;;;;;;;;;;4992312;28;20237;-85
2023/09/18 09:52:44;;;;;;;3.58;1.77;;;;;;;;;;4992518;28;20609;-84
2023/09/18 09:55:24;;;;;;;3.63;1.80;;;;;;;;;;4992747;28;20201;-86
2023/09/18 09:57:52;;;;;;;3.80;1.80;;;;;;;;;;4991870;28;20209;-85
2023/09/18 10:00:30;;;;;;;4.47;2.00;;;;;;;;;;4991857;28;20244;-85
2023/09/18 10:03:02;;;;;;;4.03;1.98;;;;;;;;;;4992122;28;20284;-85
2023/09/18 10:05:31;;;;;;;2.88;1.83;;;;;;;;;;4991990;28;20198;-84
2023/09/18 10:08:03;;;;;;;4.68;1.98;;;;;;;;;;4992163;28;20197;-85
2023/09/18 10:10:34;;;;;;;4.22;1.80;;;;;;;;;;4992075;28;20198;-84
2023/09/18 10:13:05;;;;;;;3.15;1.98;;;;;;;;;;4991430;28;20233;-83
2023/09/18 10:15:38;;;;;;;4.68;1.95;;;;;;;;;;4991594;28;20660;-83
2023/09/18 10:18:07;;;;;;;4.57;2.00;;;;;;;;;;4991660;28;20206;-85
2023/09/18 10:20:42;;;;;;;3.22;1.90;;;;;;;;;;4992138;28;20205;-85
2023/09/18 10:23:17;;;;;;;4.70;2.22;;;;;;;;;;4992171;28;20719;-85
2023/09/18 10:25:47;;;;;;;3.95;1.42;;;;;;;;;;4991886;28;20206;-84
2023/09/18 10:28:15;;;;;;;4.97;1.80;;;;;;;;;;4991289;28;20244;-85
2023/09/18 10:30:44;;;;;;;6.80;1.83;;;;;;;;;;4992014;28;20229;-83
2023/09/18 10:33:11;;;;;;;4.65;1.65;;;;;;;;;;4991689;28;20240;-83
2023/09/18 10:35:39;;;;;;;4.28;2.08;;;;;;;;;;4991457;28;20216;-82
2023/09/18 10:38:07;;;;;;;5.75;1.90;;;;;;;;;;4991433;28;20680;-83
2023/09/18 10:40:36;;;;;;;3.38;1.83;;;;;;;;;;4992268;28;20305;-83
2023/09/18 10:43:09;;;;;;;3.67;2.15;;;;;;;;;;4991534;28;20198;-83
2023/09/18 10:45:37;;;;;;;5.65;1.90;;;;;;;;;;4991721;28;20285;-82
2023/09/18 10:48:07;;;;;;;3.35;2.22;;;;;;;;;;4991546;28;20611;-83
2023/09/18 10:50:35;;;;;;;5.93;2.45;;;;;;;;;;4991569;28;20212;-83
2023/09/18 10:53:03;;;;;;;3.30;1.95;;;;;;;;;;4991784;28;20280;-83
2023/09/18 10:55:30;;;;;;;2.90;1.85;;;;;;;;;;4991826;28;20237;-82
2023/09/18 10:57:58;;;;;;;5.82;2.05;;;;;;;;;;4991843;28;20281;-84
2023/09/18 11:00:28;;;;;;;2.88;1.60;;;;;;;;;;4992138;28;20237;-83
2023/09/18 11:02:58;;;;;;;3.10;1.70;;;;;;;;;;4991527;28;20324;-83
2023/09/18 11:05:30;;;;;;;3.10;1.52;;;;;;;;;;4991865;28;20237;-84
2023/09/18 11:08:16;;;;;;;3.10;1.60;;;;;;;;;;4991795;28;20197;-84
2023/09/18 11:10:56;;;;;;;2.97;1.67;;;;;;;;;;4994300;28;20288;-83
2023/09/18 11:13:30;;;;;;;3.60;1.75;;;;;;;;;;4995512;28;20268;-84
2023/09/18 11:16:03;;;;;;;5.10;2.08;;;;;;;;;;4995256;28;20285;-84
2023/09/18 11:18:34;;;;;;;3.65;1.80;;;;;;;;;;4994547;28;20292;-84
2023/09/18 11:21:11;;;;;;;3.60;1.83;;;;;;;;;;4995030;28;20309;-84
2023/09/18 11:23:42;;;;;;;4.88;1.92;;;;;;;;;;4995192;28;20194;-84
2023/09/18 11:26:09;;;;;;;1.85;1.35;;;;;;;;;;4994530;28;20198;-84
2023/09/18 11:28:38;;;;;;;5.80;1.65;;;;;;;;;;4994807;28;20705;-84
2023/09/18 11:31:07;;;;;;;5.55;2.00;;;;;;;;;;4995161;28;20202;-84
2023/09/18 11:33:35;;;;;;;6.38;1.88;;;;;;;;;;4994517;28;20222;-83
2023/09/18 11:36:07;;;;;;;4.53;1.70;;;;;;;;;;4994934;28;20226;-84
2023/09/18 11:38:35;;;;;;;3.58;1.88;;;;;;;;;;4995262;28;20204;-83
2023/09/18 11:41:21;;;;;;;3.13;1.83;;;;;;;;;;4994110;28;20198;-83
2023/09/18 11:43:48;;;;;;;4.07;1.85;;;;;;;;;;4994779;28;20233;-83
2023/09/18 11:46:19;;;;;;;3.40;1.80;;;;;;;;;;4994238;28;20289;-83
2023/09/18 11:48:49;;;;;;;9.10;2.17;;;;;;;;;;4994517;28;20293;-83
2023/09/18 11:51:22;;;;;;;6.50;1.92;;;;;;;;;;4994242;28;20585;-84
2023/09/18 11:53:51;;;;;;;3.65;2.08;;;;;;;;;;4994574;28;20321;-84
2023/09/18 11:56:18;;;;;;;4.72;2.08;;;;;;;;;;4993558;28;20700;-84
2023/09/18 11:58:46;;;;;;;5.03;1.88;;;;;;;;;;4994312;28;20305;-83
2023/09/18 12:01:15;;;;;;;4.38;2.10;;;;;;;;;;4994398;28;20244;-84
2023/09/18 12:03:44;;;;;;;3.58;2.00;;;;;;;;;;4993786;28;20613;-84
2023/09/18 12:06:13;;;;;;;3.72;1.85;;;;;;;;;;4994259;28;20198;-84
2023/09/18 12:08:41;;;;;;;4.60;1.98;;;;;;;;;;4994006;28;20198;-83
2023/09/18 12:11:08;;;;;;;3.42;1.80;;;;;;;;;;4994093;28;20226;-84
2023/09/18 12:13:36;;;;;;;2.60;1.60;;;;;;;;;;4993537;28;20324;-84
2023/09/18 12:16:05;;;;;;;2.70;1.58;;;;;;;;;;4994108;28;20743;-84
2023/09/18 12:18:34;;;;;;;3.92;1.73;;;;;;;;;;4994201;28;20216;-85
2023/09/18 12:21:04;;;;;;;4.80;1.42;;;;;;;;;;4993225;28;20206;-84
2023/09/18 12:23:39;;;;;;;2.50;1.42;;;;;;;;;;4993551;28;20204;-83
2023/09/18 12:26:07;;;;;;;2.65;1.40;;;;;;;;;;4994104;28;20209;-84
2023/09/18 12:28:35;;;;;;;3.55;1.35;;;;;;;;;;4993895;28;20197;-84
2023/09/18 12:31:04;;;;;;;4.05;1.42;;;;;;;;;;4993739;28;20280;-84
2023/09/18 12:33:35;;;;;;;2.20;1.60;;;;;;;;;;4993753;28;20350;-85
2023/09/18 12:36:04;;;;;;;2.50;1.30;;;;;;;;;;4993722;28;20233;-85
2023/09/18 12:38:32;;;;;;;1.80;1.35;;;;;;;;;;4993954;28;20300;-84
2023/09/18 12:41:05;;;;;;;3.38;1.40;;;;;;;;;;4993166;28;20225;-84
2023/09/18 12:43:34;;;;;;;4.32;1.40;;;;;;;;;;4993981;28;20635;-85
2023/09/18 12:46:03;;;;;;;2.85;1.30;;;;;;;;;;4993541;28;20677;-85
2023/09/18 12:48:30;;;;;;;2.20;1.30;;;;;;;;;;4993539;28;20206;-85
2023/09/18 12:51:03;;;;;;;2.60;1.20;;;;;;;;;;4993255;28;20225;-86
2023/09/18 12:53:32;;;;;;;2.13;1.40;;;;;;;;;;4992986;28;20703;-84
2023/09/18 12:56:09;;;;;;;1.88;1.23;;;;;;;;;;4993350;28;20236;-84
2023/09/18 12:58:37;;;;;;;1.92;1.20;;;;;;;;;;4993352;28;20194;-83
2023/09/18 13:01:09;;;;;;;3.10;1.33;;;;;;;;;;4993397;28;20224;-84
2023/09/18 13:03:37;;;;;;;2.63;1.35;;;;;;;;;;4993188;28;20230;-86
2023/09/18 13:06:11;;;;;;;3.00;1.30;;;;;;;;;;4993517;28;20285;-85
2023/09/18 13:08:40;;;;;;;2.42;1.20;;;;;;;;;;4993065;28;20281;-83
2023/09/18 13:11:07;;;;;;;4.22;1.30;;;;;;;;;;4992937;28;20206;-83
2023/09/18 13:13:34;;;;;;;2.75;1.23;;;;;;;;;;4992777;28;20253;-84
2023/09/18 13:16:03;;;;;;;1.33;1.05;;;;;;;;;;4993196;28;20198;-84
2023/09/18 13:18:31;;;;;;;2.65;1.25;;;;;;;;;;4992891;28;20711;-85
2023/09/18 13:20:58;;;;;;;1.75;1.13;;;;;;;;;;4992188;28;20289;-84
2023/09/18 13:23:29;;;;;;;3.03;1.23;;;;;;;;;;4992627;28;20206;-85
2023/09/18 13:26:02;;;;;;;1.88;1.10;;;;;;;;;;4992735;28;20206;-84
2023/09/18 13:28:31;;;;;;;1.23;0.90;;;;;;;;;;4992672;28;20241;-85
2023/09/18 13:30:59;;;;;;;1.30;0.93;;;;;;;;;;4992693;28;20574;-83
2023/09/18 13:33:26;;;;;;;1.40;0.80;;;;;;;;;;4992091;28;20229;-84
2023/09/18 13:35:55;;;;;;;0.93;0.77;;;;;;;;;;4992287;28;20236;-85
2023/09/18 13:38:23;;;;;;;2.85;0.73;;;;;;;;;;4992688;28;20292;-84
2023/09/18 13:40:50;;;;;;;3.00;0.82;;;;;;;;;;4992460;28;20248;-84
2023/09/18 13:43:21;;;;;;;1.80;0.90;;;;;;;;;;4992392;28;20217;-84
2023/09/18 13:45:49;;;;;;;2.65;0.85;;;;;;;;;;4992611;28;20198;-84
2023/09/18 13:48:16;;;;;;;2.65;0.75;;;;;;;;;;4992452;28;20198;-84
2023/09/18 13:50:43;;;;;;;1.92;0.80;;;;;;;;;;4992061;28;20605;-84
2023/09/18 13:53:11;;;;;;;1.83;0.75;;;;;;;;;;4992169;28;20332;-85
2023/09/18 13:55:38;;;;;;;1.27;0.80;;;;;;;;;;4992597;28;20226;-85
2023/09/18 13:58:05;;;;;;;3.63;0.75;;;;;;;;;;4992414;28;20237;-86
2023/09/18 14:00:34;;;;;;;2.58;0.70;;;;;;;;;;4992408;28;20207;-85
2023/09/18 14:03:02;;;;;;;1.10;0.75;;;;;;;;;;4991930;28;20683;-84
2023/09/18 14:05:31;;;;;;;1.20;0.70;;;;;;;;;;4991740;28;20204;-83
2023/09/18 14:07:59;;;;;;;2.25;1.00;;;;;;;;;;4992311;28;20197;-84
2023/09/18 14:10:27;;;;;;;2.20;0.70;;;;;;;;;;4992095;28;20256;-84
2023/09/18 14:12:54;;;;;;;1.02;0.80;;;;;;;;;;4993014;28;20743;-84
2023/09/18 14:15:21;;;;;;;3.60;1.08;;;;;;;;;;4990780;28;20234;-85
2023/09/18 14:17:50;;;;;;;1.58;0.85;;;;;;;;;;4973835;28;21889;-84
2023/09/18 14:20:18;;;;;;;2.38;0.90;;;;;;;;;;4990634;28;20239;-85
2023/09/18 14:22:49;;;;;;;1.85;1.10;;;;;;;;;;4991172;28;20277;-85
2023/09/18 14:25:16;;;;;;;1.55;0.88;;;;;;;;;;4990889;28;20735;-86
2023/09/18 14:27:43;;;;;;;2.47;0.98;;;;;;;;;;4989898;28;20680;-85
2023/09/18 14:30:13;;;;;;;1.17;0.88;;;;;;;;;;4989700;28;20202;-83
2023/09/18 14:32:40;;;;;;;2.60;1.50;;;;;;;;;;4990963;28;20296;-84
2023/09/18 14:35:09;;;;;;;2.40;1.00;;;;;;;;;;4989207;28;20221;-85
2023/09/18 14:37:37;;;;;;;1.83;1.10;;;;;;;;;;4989084;28;20715;-84
2023/09/18 14:40:05;;;;;;;1.63;1.00;;;;;;;;;;4990559;28;20233;-84
2023/09/18 14:42:33;;;;;;;1.50;0.90;;;;;;;;;;4991762;28;20264;-84